Time;durP1;ratioP1;P1;durP2;ratioP2;P2;SDS_P1;SDS_P2;PMS_P1;PMS_P2;Temp;Humidity;BMP_temperature;BMP_pressure;BME280_temperature;BME280_humidity;BME280_pressure;Samples;Min_cycle;Max_cycle;Signal;HPM_P1;HPM_P2
2023/03/10 00:00:20;;;;;;;1.00;0.90;;;;;;;18.33;39.45;98625.53;4873682;28;96623;-72
2023/03/10 00:02:48;;;;;;;0.93;0.80;;;;;;;18.33;39.14;98650.84;4874162;28;96744;-73
2023/03/10 00:05:17;;;;;;;0.90;0.80;;;;;;;18.32;38.95;98653.75;4875318;28;96837;-72
2023/03/10 00:07:46;;;;;;;1.10;1.00;;;;;;;18.33;39.29;98650.00;4875173;28;96874;-74
2023/03/10 00:10:13;;;;;;;0.80;0.70;;;;;;;18.32;39.46;98654.59;4872698;28;97571;-73
2023/03/10 00:12:40;;;;;;;1.08;0.85;;;;;;;18.35;39.24;98653.34;4875769;28;97113;-72
2023/03/10 00:15:07;;;;;;;0.95;0.85;;;;;;;18.38;39.41;98658.34;4875646;28;96699;-73
2023/03/10 00:17:34;;;;;;;1.00;0.90;;;;;;;18.37;39.34;98660.22;4875042;28;96783;-73
2023/03/10 00:20:06;;;;;;;0.93;0.80;;;;;;;18.38;39.31;98650.19;4874155;28;97806;-73
2023/03/10 00:22:34;;;;;;;0.80;0.80;;;;;;;18.38;39.10;98642.03;4875047;28;96712;-73
2023/03/10 00:25:00;;;;;;;0.80;0.80;;;;;;;18.37;39.03;98635.78;4874076;28;96851;-72
2023/03/10 00:27:27;;;;;;;0.70;0.70;;;;;;;18.37;39.03;98633.06;4873826;28;97129;-73
2023/03/10 00:29:54;;;;;;;1.00;0.77;;;;;;;18.39;39.00;98636.41;4873083;28;98616;-72
2023/03/10 00:32:21;;;;;;;0.85;0.70;;;;;;;18.38;39.17;98640.16;4873290;28;96818;-73
2023/03/10 00:34:47;;;;;;;0.70;0.70;;;;;;;18.39;39.34;98643.72;4868846;28;97133;-72
2023/03/10 00:37:14;;;;;;;0.73;0.73;;;;;;;18.39;39.02;98644.53;4875302;28;96946;-73
2023/03/10 00:39:41;;;;;;;0.80;0.77;;;;;;;18.42;39.13;98643.28;4874436;28;98071;-73
2023/03/10 00:42:07;;;;;;;0.98;0.82;;;;;;;18.41;38.91;98641.63;4874987;28;96668;-72
2023/03/10 00:44:34;;;;;;;1.27;0.73;;;;;;;18.42;39.15;98643.28;4874432;28;97782;-72
2023/03/10 00:47:01;;;;;;;0.98;0.88;;;;;;;18.40;39.27;98635.34;4889470;28;97180;-72
2023/03/10 00:49:27;;;;;;;1.00;0.80;;;;;;;18.41;39.22;98638.91;4876284;28;96980;-72
2023/03/10 00:51:55;;;;;;;1.20;0.80;;;;;;;18.40;38.88;98639.94;4873335;28;98441;-72
2023/03/10 00:54:21;;;;;;;0.55;0.55;;;;;;;18.38;39.16;98640.16;4874932;28;97206;-73
2023/03/10 00:56:48;;;;;;;0.70;0.63;;;;;;;18.37;39.03;98638.50;4874409;28;96880;-72
2023/03/10 00:59:14;;;;;;;0.80;0.80;;;;;;;18.35;39.04;98637.03;4873892;28;97679;-76
2023/03/10 01:01:41;;;;;;;0.98;0.80;;;;;;;18.34;39.13;98636.19;4886380;28;101039;-72
2023/03/10 01:04:12;;;;;;;1.10;0.90;;;;;;;18.33;39.05;98639.97;4874647;28;96713;-73
2023/03/10 01:06:39;;;;;;;0.95;0.85;;;;;;;18.34;39.07;98644.34;4857472;28;96839;-72
2023/03/10 01:09:06;;;;;;;0.70;0.63;;;;;;;18.31;39.30;98647.50;4872182;28;100864;-73
2023/03/10 01:11:33;;;;;;;0.60;0.60;;;;;;;18.33;39.18;98650.00;4872168;28;99466;-73
2023/03/10 01:14:03;;;;;;;1.45;0.82;;;;;;;18.36;39.42;98644.13;4857195;28;98126;-72
2023/03/10 01:16:30;;;;;;;0.88;0.70;;;;;;;18.37;39.12;98645.81;4874574;28;96892;-73
2023/03/10 01:18:57;;;;;;;1.00;0.90;;;;;;;18.37;38.99;98648.53;4874074;28;97141;-72
2023/03/10 01:21:31;;;;;;;1.17;0.98;;;;;;;18.36;39.29;98647.69;4885625;28;97405;-73
2023/03/10 01:23:59;;;;;;;1.00;0.80;;;;;;;18.36;39.24;98642.25;4873076;28;96765;-73
2023/03/10 01:26:26;;;;;;;1.00;0.80;;;;;;;18.37;39.44;98637.66;4875076;28;97167;-72
2023/03/10 01:28:52;;;;;;;0.98;0.80;;;;;;;18.38;38.97;98642.03;4872915;28;96866;-73
2023/03/10 01:31:19;;;;;;;0.68;0.60;;;;;;;18.37;39.21;98637.66;4873508;28;97483;-73
2023/03/10 01:33:46;;;;;;;0.77;0.65;;;;;;;18.37;39.16;98635.78;4857018;28;97072;-72
2023/03/10 01:36:25;;;;;;;0.90;0.70;;;;;;;18.38;38.98;98623.84;4870625;28;96657;-72
2023/03/10 01:38:53;;;;;;;0.70;0.70;;;;;;;18.39;39.28;98621.97;4873552;28;96783;-72
2023/03/10 01:41:20;;;;;;;0.77;0.77;;;;;;;18.39;39.09;98606.50;4872277;28;97219;-73
2023/03/10 01:43:49;;;;;;;0.50;0.50;;;;;;;18.40;38.85;98616.31;4872887;28;96697;-73
2023/03/10 01:46:28;;;;;;;0.82;0.73;;;;;;;18.39;38.89;98620.09;4857045;28;96759;-72
2023/03/10 01:49:20;;;;;;;0.80;0.70;;;;;;;18.39;39.33;98614.66;4872578;28;96835;-72
2023/03/10 01:51:55;;;;;;;0.70;0.60;;;;;;;18.39;38.91;98600.22;4873577;28;97302;-72
2023/03/10 01:54:27;;;;;;;0.88;0.88;;;;;;;18.38;38.95;98604.84;4872340;28;96964;-72
2023/03/10 01:56:56;;;;;;;1.00;0.90;;;;;;;18.38;39.00;98607.56;4870546;28;97356;-73
2023/03/10 01:59:26;;;;;;;0.65;0.60;;;;;;;18.37;39.08;98610.47;4869610;28;96866;-73
2023/03/10 02:01:56;;;;;;;0.80;0.70;;;;;;;18.37;38.91;98602.31;4869744;28;97813;-73
2023/03/10 02:04:32;;;;;;;0.95;0.75;;;;;;;18.35;39.41;98612.56;4872553;28;97048;-73
2023/03/10 02:07:01;;;;;;;0.88;0.70;;;;;;;18.34;38.97;98600.88;4856814;28;97060;-72
2023/03/10 02:09:28;;;;;;;1.00;0.80;;;;;;;18.34;38.97;98605.47;4872740;28;96833;-72
2023/03/10 02:11:58;;;;;;;0.95;0.70;;;;;;;18.37;39.05;98600.44;4872083;28;99035;-73
2023/03/10 02:14:31;;;;;;;0.95;0.80;;;;;;;18.37;39.36;98586.84;4856000;28;96822;-74
2023/03/10 02:17:05;;;;;;;0.60;0.60;;;;;;;18.39;39.05;98589.34;4872902;28;96862;-74
2023/03/10 02:20:03;;;;;;;1.02;0.90;;;;;;;18.41;39.17;98590.81;4873160;28;97474;-73
2023/03/10 02:22:31;;;;;;;0.82;0.75;;;;;;;18.41;39.04;98584.53;4871115;28;99795;-74
2023/03/10 02:25:27;;;;;;;0.60;0.60;;;;;;;18.39;39.20;98586.63;4871637;28;96814;-74
2023/03/10 02:27:54;;;;;;;0.80;0.77;;;;;;;18.42;39.20;98591.66;4867563;28;97626;-73
2023/03/10 02:30:37;;;;;;;0.75;0.70;;;;;;;18.45;39.32;98593.09;4870526;28;100153;-73
2023/03/10 02:33:09;;;;;;;1.02;0.80;;;;;;;18.41;39.16;98589.97;4871832;28;99993;-75
2023/03/10 02:35:36;;;;;;;0.85;0.68;;;;;;;18.42;39.19;98583.50;4873391;28;97361;-71
2023/03/10 02:38:07;;;;;;;0.80;0.70;;;;;;;18.42;39.31;98578.06;4871657;28;98144;-73
2023/03/10 02:40:39;;;;;;;0.60;0.50;;;;;;;18.41;39.14;98574.50;4871382;28;96779;-72
2023/03/10 02:43:17;;;;;;;0.80;0.60;;;;;;;18.43;39.06;98582.44;4856466;28;99046;-72
2023/03/10 02:45:47;;;;;;;0.68;0.68;;;;;;;18.44;39.01;98581.41;4871996;28;96869;-71
2023/03/10 02:48:21;;;;;;;1.02;0.70;;;;;;;18.43;39.17;98577.00;4871604;28;97379;-71
2023/03/10 02:50:49;;;;;;;0.82;0.77;;;;;;;18.43;39.27;98571.56;4870536;28;96852;-72
2023/03/10 02:53:20;;;;;;;0.75;0.73;;;;;;;18.46;39.32;98567.59;4887547;28;97449;-71
2023/03/10 02:55:48;;;;;;;0.93;0.80;;;;;;;18.47;38.87;98574.69;4871693;28;96761;-72
2023/03/10 02:58:14;;;;;;;0.68;0.55;;;;;;;18.45;38.92;98565.94;4856011;28;96918;-72
2023/03/10 03:00:44;;;;;;;0.60;0.60;;;;;;;18.42;39.29;98557.16;4872423;28;97544;-71
2023/03/10 03:03:13;;;;;;;0.90;0.70;;;;;;;18.42;39.25;98543.56;4879836;28;98025;-73
2023/03/10 03:05:40;;;;;;;0.70;0.68;;;;;;;18.39;39.17;98544.00;4871797;28;97162;-72
2023/03/10 03:08:08;;;;;;;0.75;0.65;;;;;;;18.38;39.05;98544.22;4870161;28;98546;-71
2023/03/10 03:10:35;;;;;;;0.68;0.52;;;;;;;18.38;39.17;98541.50;4868137;28;99270;-72
2023/03/10 03:13:04;;;;;;;0.80;0.60;;;;;;;18.37;39.27;98548.81;4872107;28;99154;-71
2023/03/10 03:15:31;;;;;;;0.70;0.60;;;;;;;18.38;39.28;98538.78;4872746;28;96703;-72
2023/03/10 03:17:58;;;;;;;0.68;0.55;;;;;;;18.36;39.15;98538.16;4875770;28;96743;-71
2023/03/10 03:20:28;;;;;;;0.68;0.60;;;;;;;18.36;38.96;98543.59;4858502;28;100682;-73
2023/03/10 03:22:56;;;;;;;1.27;0.70;;;;;;;18.36;39.23;98535.44;4876098;28;97309;-72
2023/03/10 03:25:25;;;;;;;0.55;0.55;;;;;;;18.38;39.15;98536.88;4874788;28;96866;-72
2023/03/10 03:27:52;;;;;;;0.75;0.70;;;;;;;18.37;39.05;98537.94;4874264;28;97291;-73
2023/03/10 03:30:23;;;;;;;0.73;0.70;;;;;;;18.41;39.30;98543.78;4873431;28;97675;-71
2023/03/10 03:32:51;;;;;;;0.70;0.70;;;;;;;18.42;39.27;98537.28;4874465;28;97968;-71
2023/03/10 03:35:24;;;;;;;0.98;0.70;;;;;;;18.45;39.24;98541.47;4874929;28;99072;-71
2023/03/10 03:37:52;;;;;;;0.68;0.45;;;;;;;18.43;39.22;98537.06;4858844;28;96915;-73
2023/03/10 03:40:22;;;;;;;0.85;0.50;;;;;;;18.45;39.31;98536.88;4871406;28;98254;-74
2023/03/10 03:42:51;;;;;;;1.10;0.63;;;;;;;18.46;39.00;98537.69;4874256;28;97319;-73
2023/03/10 03:45:21;;;;;;;0.85;0.68;;;;;;;18.46;39.29;98534.97;4871867;28;96768;-71
2023/03/10 03:47:48;;;;;;;0.85;0.60;;;;;;;18.48;39.24;98535.59;4874437;28;96777;-73
2023/03/10 03:50:18;;;;;;;0.73;0.70;;;;;;;18.48;39.25;98538.31;4873546;28;100410;-72
2023/03/10 03:52:45;;;;;;;0.60;0.55;;;;;;;18.45;39.05;98533.31;4874137;28;100287;-72
2023/03/10 03:55:15;;;;;;;0.52;0.52;;;;;;;18.46;39.01;98530.38;4874226;28;96767;-73
2023/03/10 03:57:43;;;;;;;0.60;0.60;;;;;;;18.46;38.92;98534.97;4865743;28;96768;-72
2023/03/10 04:00:14;;;;;;;0.60;0.60;;;;;;;18.45;39.11;98527.88;4873518;28;99541;-72
2023/03/10 04:02:44;;;;;;;0.82;0.70;;;;;;;18.45;38.98;98530.59;4873752;28;100184;-71
2023/03/10 04:05:11;;;;;;;0.70;0.60;;;;;;;18.48;38.78;98533.72;4873775;28;96906;-72
2023/03/10 04:07:39;;;;;;;0.80;0.70;;;;;;;18.49;39.32;98535.38;4874261;28;96783;-71
2023/03/10 04:10:11;;;;;;;0.70;0.60;;;;;;;18.49;39.21;98534.53;4857851;28;99935;-71
2023/03/10 04:12:38;;;;;;;0.73;0.60;;;;;;;18.50;38.88;98533.50;4872680;28;99180;-72
2023/03/10 04:15:07;;;;;;;0.57;0.50;;;;;;;18.47;39.27;98531.22;4873734;28;96825;-72
2023/03/10 04:17:34;;;;;;;0.73;0.60;;;;;;;18.47;38.93;98533.94;4873771;28;97186;-73
2023/03/10 04:20:01;;;;;;;0.88;0.70;;;;;;;18.43;39.24;98530.81;4873318;28;99281;-72
2023/03/10 04:22:37;;;;;;;0.57;0.52;;;;;;;18.44;39.39;98527.03;4871125;28;97217;-71
2023/03/10 04:25:06;;;;;;;0.50;0.50;;;;;;;18.42;39.18;98535.41;4857685;28;96972;-72
2023/03/10 04:27:34;;;;;;;0.63;0.52;;;;;;;18.43;38.79;98522.66;4891111;28;97268;-72
2023/03/10 04:30:03;;;;;;;0.65;0.50;;;;;;;18.43;39.19;98517.22;4878071;28;96953;-71
2023/03/10 04:32:32;;;;;;;0.82;0.73;;;;;;;18.43;39.42;98523.50;4874431;28;99879;-72
2023/03/10 04:34:59;;;;;;;0.73;0.60;;;;;;;18.42;39.25;98524.53;4877705;28;96759;-71
2023/03/10 04:37:26;;;;;;;0.57;0.50;;;;;;;18.41;38.96;98525.59;4875199;28;96671;-72
2023/03/10 04:39:53;;;;;;;0.80;0.70;;;;;;;18.42;39.06;98527.25;4857080;28;98303;-72
2023/03/10 04:42:20;;;;;;;0.80;0.70;;;;;;;18.42;39.36;98518.28;4873407;28;98200;-71
2023/03/10 04:44:46;;;;;;;0.70;0.70;;;;;;;18.42;39.40;98519.09;4875190;28;96799;-73
2023/03/10 04:47:13;;;;;;;0.70;0.60;;;;;;;18.43;39.27;98506.34;4874635;28;96900;-72
2023/03/10 04:49:40;;;;;;;0.68;0.60;;;;;;;18.46;39.21;98518.66;4872478;28;99009;-71
2023/03/10 04:52:10;;;;;;;0.75;0.73;;;;;;;18.46;38.84;98514.06;4873103;28;99473;-72
2023/03/10 04:54:36;;;;;;;0.88;0.65;;;;;;;18.48;39.03;98511.13;4872996;28;96886;-72
2023/03/10 04:57:02;;;;;;;0.52;0.50;;;;;;;18.48;38.85;98505.69;4873013;28;96827;-72
2023/03/10 04:59:29;;;;;;;0.80;0.70;;;;;;;18.50;39.15;98498.16;4872612;28;98990;-71
2023/03/10 05:01:56;;;;;;;0.70;0.50;;;;;;;18.47;39.06;98490.44;4872600;28;97129;-71
2023/03/10 05:04:22;;;;;;;0.60;0.57;;;;;;;18.45;39.05;98498.81;4858362;28;97008;-71
2023/03/10 05:06:51;;;;;;;0.70;0.60;;;;;;;18.47;38.92;98491.28;4864129;28;97029;-75
2023/03/10 05:09:23;;;;;;;0.70;0.60;;;;;;;18.49;39.06;98496.50;4873379;28;98064;-72
2023/03/10 05:11:49;;;;;;;0.85;0.70;;;;;;;18.50;39.12;98500.88;4876443;28;100367;-74
2023/03/10 05:14:17;;;;;;;0.80;0.70;;;;;;;18.48;39.05;98497.53;4876894;28;97285;-72
2023/03/10 05:16:47;;;;;;;0.65;0.60;;;;;;;18.48;39.12;98492.09;4873827;28;96798;-72
2023/03/10 05:19:13;;;;;;;0.90;0.70;;;;;;;18.48;39.01;98494.81;4872858;28;97522;-72
2023/03/10 05:21:40;;;;;;;0.60;0.60;;;;;;;18.50;39.29;98495.44;4863164;28;100211;-72
2023/03/10 05:24:07;;;;;;;0.90;0.60;;;;;;;18.48;38.85;98489.38;4873234;28;96781;-72
2023/03/10 05:26:34;;;;;;;0.60;0.55;;;;;;;18.47;39.05;98490.44;4872722;28;97002;-72
2023/03/10 05:29:02;;;;;;;0.65;0.60;;;;;;;18.48;38.97;98490.22;4874415;28;97158;-71
2023/03/10 05:31:41;;;;;;;0.63;0.52;;;;;;;18.49;39.28;98486.47;4872006;28;98698;-72
2023/03/10 05:34:13;;;;;;;0.63;0.52;;;;;;;18.47;39.37;98482.28;4872777;28;96741;-71
2023/03/10 05:36:41;;;;;;;0.75;0.60;;;;;;;18.48;39.36;98489.38;4857572;28;97220;-71
2023/03/10 05:39:08;;;;;;;0.60;0.50;;;;;;;18.50;38.95;98482.69;4872587;28;97705;-73
2023/03/10 05:41:39;;;;;;;0.90;0.70;;;;;;;18.50;39.21;98482.69;4872481;28;96836;-72
2023/03/10 05:44:06;;;;;;;0.52;0.52;;;;;;;18.51;39.17;98484.34;4872586;28;97220;-72
2023/03/10 05:46:34;;;;;;;0.50;0.50;;;;;;;18.53;39.10;98492.28;4872147;28;98038;-72
2023/03/10 05:49:01;;;;;;;0.80;0.65;;;;;;;18.51;38.89;98488.97;4871580;28;96783;-72
2023/03/10 05:51:28;;;;;;;0.75;0.60;;;;;;;18.48;39.29;98484.78;4871948;28;96764;-72
2023/03/10 05:53:56;;;;;;;0.88;0.70;;;;;;;18.46;38.95;98492.31;4872292;28;97117;-71
2023/03/10 05:56:26;;;;;;;0.70;0.60;;;;;;;18.43;39.37;98488.16;4871977;28;96713;-73
2023/03/10 05:58:57;;;;;;;0.60;0.47;;;;;;;18.43;38.89;98496.31;4871318;28;97478;-71
2023/03/10 06:01:29;;;;;;;0.73;0.60;;;;;;;18.45;39.09;98495.25;4870968;28;99457;-72
2023/03/10 06:03:55;;;;;;;0.50;0.40;;;;;;;18.45;39.15;98492.53;4869687;28;97180;-72
2023/03/10 06:06:22;;;;;;;0.57;0.57;;;;;;;18.46;39.05;98491.50;4878257;28;97041;-72
2023/03/10 06:08:48;;;;;;;0.60;0.50;;;;;;;18.46;39.31;98486.06;4872901;28;96798;-72
2023/03/10 06:11:15;;;;;;;0.65;0.65;;;;;;;18.48;38.96;98492.09;4872716;28;97238;-72
2023/03/10 06:13:41;;;;;;;0.55;0.50;;;;;;;18.49;39.33;98489.19;4873921;28;96587;-71
2023/03/10 06:16:10;;;;;;;0.50;0.50;;;;;;;18.49;39.26;98493.78;4873780;28;96803;-71
2023/03/10 06:18:36;;;;;;;0.50;0.50;;;;;;;18.51;39.20;98491.69;4885173;28;97060;-72
2023/03/10 06:21:05;;;;;;;0.50;0.47;;;;;;;18.51;39.03;98488.97;4873258;28;97240;-72
2023/03/10 06:23:32;;;;;;;0.70;0.60;;;;;;;18.49;38.92;98494.63;4873025;28;96944;-71
2023/03/10 06:26:05;;;;;;;0.82;0.52;;;;;;;18.48;38.68;98497.53;4874000;28;96969;-71
2023/03/10 06:28:35;;;;;;;0.57;0.45;;;;;;;18.50;38.93;98495.44;4873126;28;97448;-71
2023/03/10 06:31:05;;;;;;;0.70;0.50;;;;;;;18.51;39.20;98502.53;4872031;28;96845;-72
2023/03/10 06:33:32;;;;;;;0.57;0.50;;;;;;;18.52;38.94;98504.22;4872806;28;96714;-72
2023/03/10 06:35:59;;;;;;;0.80;0.60;;;;;;;18.50;39.15;98504.44;4873498;28;96918;-71
2023/03/10 06:38:26;;;;;;;0.40;0.40;;;;;;;18.50;39.19;98509.03;4872981;28;96651;-72
2023/03/10 06:40:53;;;;;;;0.50;0.50;;;;;;;18.51;39.17;98510.69;4872961;28;96705;-72
2023/03/10 06:43:19;;;;;;;0.80;0.63;;;;;;;18.52;39.04;98512.38;4871258;28;96810;-72
2023/03/10 06:45:48;;;;;;;0.50;0.50;;;;;;;18.52;39.34;98512.38;4873634;28;98501;-72
2023/03/10 06:48:15;;;;;;;1.00;0.77;;;;;;;18.52;39.13;98505.06;4876107;28;96679;-72
2023/03/10 06:50:47;;;;;;;0.68;0.68;;;;;;;18.55;39.17;98507.34;4874504;28;97315;-71
2023/03/10 06:53:18;;;;;;;0.52;0.50;;;;;;;18.55;39.33;98517.38;4876557;28;96827;-74
2023/03/10 06:56:15;;;;;;;0.50;0.50;;;;;;;18.55;38.96;98518.22;4876317;28;96509;-74
2023/03/10 06:58:42;;;;;;;0.50;0.47;;;;;;;18.56;38.88;98516.31;4873605;28;98042;-74
2023/03/10 07:01:22;;;;;;;0.70;0.60;;;;;;;18.56;38.77;98519.03;4874049;28;98043;-74
2023/03/10 07:03:48;;;;;;;0.60;0.50;;;;;;;18.55;39.20;98523.66;4875534;28;96847;-74
2023/03/10 07:06:15;;;;;;;0.70;0.57;;;;;;;18.56;39.06;98535.34;4876623;28;96843;-74
2023/03/10 07:08:41;;;;;;;0.60;0.50;;;;;;;18.55;39.04;98536.41;4876415;28;96838;-73
2023/03/10 07:11:08;;;;;;;0.52;0.50;;;;;;;18.56;39.25;98536.19;4875838;28;97373;-74
2023/03/10 07:13:35;;;;;;;0.60;0.50;;;;;;;18.56;38.83;98532.63;4875035;28;96796;-73
2023/03/10 07:16:01;;;;;;;0.73;0.65;;;;;;;18.57;39.26;98532.41;4875564;28;96970;-73
2023/03/10 07:18:28;;;;;;;0.50;0.50;;;;;;;18.59;38.93;98532.22;4875519;28;96783;-74
2023/03/10 07:20:55;;;;;;;0.85;0.60;;;;;;;18.57;38.95;98535.13;4870288;28;96873;-74
2023/03/10 07:23:23;;;;;;;0.60;0.60;;;;;;;18.57;39.07;98539.75;4859088;28;96760;-74
2023/03/10 07:25:55;;;;;;;0.55;0.47;;;;;;;18.56;39.35;98536.19;4887066;28;96782;-74
2023/03/10 07:28:23;;;;;;;0.90;0.50;;;;;;;18.57;39.34;98539.75;4872457;28;96825;-73
2023/03/10 07:30:51;;;;;;;0.60;0.57;;;;;;;18.57;39.48;98542.47;4886984;28;97311;-74
2023/03/10 07:33:17;;;;;;;0.80;0.60;;;;;;;18.57;39.32;98546.00;4876079;28;96934;-74
2023/03/10 07:35:44;;;;;;;0.60;0.60;;;;;;;18.56;38.88;98554.38;4876096;28;97963;-74
2023/03/10 07:38:11;;;;;;;0.50;0.40;;;;;;;18.57;38.89;98553.31;4875866;28;98012;-74
2023/03/10 07:40:40;;;;;;;0.80;0.45;;;;;;;18.57;39.07;98565.03;4873467;28;96766;-73
2023/03/10 07:43:07;;;;;;;1.40;0.70;;;;;;;18.59;38.80;98553.97;4874735;28;96911;-74
2023/03/10 07:45:34;;;;;;;0.50;0.50;;;;;;;18.58;39.26;98550.44;4875611;28;96919;-74
2023/03/10 07:48:00;;;;;;;0.50;0.47;;;;;;;18.58;38.96;98552.28;4875042;28;96909;-74
2023/03/10 07:50:27;;;;;;;0.50;0.50;;;;;;;18.56;39.13;98557.09;4875238;28;97244;-74
2023/03/10 07:52:55;;;;;;;0.70;0.60;;;;;;;18.57;39.18;98556.03;4874425;28;97288;-74
2023/03/10 07:55:22;;;;;;;0.50;0.50;;;;;;;18.56;38.95;98557.09;4874353;28;96685;-74
2023/03/10 07:57:48;;;;;;;0.57;0.50;;;;;;;18.57;39.33;98558.75;4875743;28;96892;-74
2023/03/10 08:00:15;;;;;;;0.73;0.60;;;;;;;18.57;39.07;98567.75;4872830;28;97821;-75
2023/03/10 08:02:42;;;;;;;0.57;0.57;;;;;;;18.58;39.17;98561.31;4875801;28;97264;-73
2023/03/10 08:05:09;;;;;;;0.30;0.30;;;;;;;18.59;39.14;98570.28;4876292;28;96982;-74
2023/03/10 08:07:36;;;;;;;0.52;0.50;;;;;;;18.60;38.97;98567.34;4874968;28;97624;-75
2023/03/10 08:10:04;;;;;;;0.68;0.50;;;;;;;18.63;39.09;98579.72;4874896;28;96817;-73
2023/03/10 08:12:30;;;;;;;0.77;0.60;;;;;;;18.61;39.07;98573.63;4872147;28;98733;-73
2023/03/10 08:14:57;;;;;;;0.82;0.60;;;;;;;18.60;38.99;98575.50;4874249;28;97386;-75
2023/03/10 08:17:29;;;;;;;0.50;0.50;;;;;;;18.61;38.97;98592.66;4896992;28;97542;-73
2023/03/10 08:19:57;;;;;;;0.57;0.43;;;;;;;18.61;39.12;98601.69;4886458;28;96741;-74
2023/03/10 08:22:23;;;;;;;0.77;0.60;;;;;;;18.63;39.03;98596.03;4875889;28;96959;-74
2023/03/10 08:24:50;;;;;;;0.40;0.30;;;;;;;18.62;39.32;98594.34;4879321;28;96927;-74
2023/03/10 08:27:17;;;;;;;0.65;0.40;;;;;;;18.60;39.03;98599.97;4883551;28;97075;-73
2023/03/10 08:29:43;;;;;;;0.30;0.30;;;;;;;18.59;38.97;98598.31;4879223;28;96799;-75
2023/03/10 08:32:10;;;;;;;0.63;0.60;;;;;;;18.60;39.39;98593.72;4874123;28;96976;-74
2023/03/10 08:34:37;;;;;;;0.50;0.40;;;;;;;18.60;39.27;98591.81;4875297;28;96831;-73
2023/03/10 08:37:04;;;;;;;0.50;0.50;;;;;;;18.62;39.36;98594.34;4886042;28;97025;-74
2023/03/10 08:39:31;;;;;;;0.60;0.47;;;;;;;18.60;39.01;98593.72;4873953;28;96668;-74
2023/03/10 08:41:57;;;;;;;0.50;0.50;;;;;;;18.60;38.96;98596.41;4877851;28;96849;-73
2023/03/10 08:44:24;;;;;;;0.60;0.40;;;;;;;18.62;39.32;98592.47;4873744;28;96974;-72
2023/03/10 08:46:51;;;;;;;0.63;0.47;;;;;;;18.63;39.02;98585.97;4873037;28;99181;-72
2023/03/10 08:49:20;;;;;;;0.68;0.50;;;;;;;18.63;38.93;98593.31;4866861;28;98533;-72
2023/03/10 08:51:48;;;;;;;0.43;0.40;;;;;;;18.61;38.88;98592.66;4878869;28;96712;-71
2023/03/10 08:54:17;;;;;;;0.60;0.40;;;;;;;18.64;39.29;98586.81;4878066;28;96848;-71
2023/03/10 08:56:44;;;;;;;0.40;0.40;;;;;;;18.64;39.18;98584.09;4863880;28;97555;-73
2023/03/10 08:59:10;;;;;;;0.50;0.50;;;;;;;18.65;39.34;98596.66;4886036;28;96668;-72
2023/03/10 09:01:37;;;;;;;0.60;0.50;;;;;;;18.63;39.29;98587.88;4878202;28;96927;-71
2023/03/10 09:04:06;;;;;;;1.45;0.50;;;;;;;18.63;38.95;98583.25;4876981;28;96764;-71
2023/03/10 09:06:33;;;;;;;0.52;0.50;;;;;;;18.65;39.13;98593.91;4875425;28;96817;-71
2023/03/10 09:09:01;;;;;;;0.63;0.50;;;;;;;18.65;38.96;98589.31;4876180;28;97439;-71
2023/03/10 09:11:32;;;;;;;0.68;0.47;;;;;;;18.64;39.12;98584.09;4879080;28;97081;-71
2023/03/10 09:14:00;;;;;;;0.73;0.43;;;;;;;18.67;38.88;98578.22;4883846;28;97196;-71
2023/03/10 09:16:27;;;;;;;0.50;0.50;;;;;;;18.67;39.08;98587.22;4883838;28;97205;-72
2023/03/10 09:18:59;;;;;;;0.45;0.40;;;;;;;18.66;39.10;98584.72;4881728;28;98094;-71
2023/03/10 09:21:28;;;;;;;0.43;0.40;;;;;;;18.65;38.98;98580.34;4879593;28;97112;-71
2023/03/10 09:23:58;;;;;;;0.60;0.30;;;;;;;18.65;38.97;98596.66;4875855;28;96940;-71
2023/03/10 09:26:24;;;;;;;0.30;0.30;;;;;;;18.66;39.29;98580.13;4861224;28;98516;-71
2023/03/10 09:28:51;;;;;;;0.60;0.50;;;;;;;18.65;39.24;98583.88;4876654;28;98168;-72
2023/03/10 09:31:23;;;;;;;0.60;0.50;;;;;;;18.65;38.90;98583.06;4878714;28;96834;-71
2023/03/10 09:33:49;;;;;;;0.50;0.43;;;;;;;18.66;38.96;98584.72;4876470;28;97034;-71
2023/03/10 09:36:16;;;;;;;0.70;0.55;;;;;;;18.66;38.85;98576.56;4887214;28;97540;-72
2023/03/10 09:38:43;;;;;;;0.70;0.50;;;;;;;18.66;39.10;98580.13;4881551;28;96723;-71
2023/03/10 09:41:47;;;;;;;0.60;0.45;;;;;;;18.64;39.24;98582.22;4874688;28;96796;-71
2023/03/10 09:44:25;;;;;;;0.47;0.40;;;;;;;18.64;39.24;98576.78;4874135;28;98283;-71
2023/03/10 09:47:03;;;;;;;0.63;0.43;;;;;;;18.65;39.14;98574.91;4863817;28;96759;-71
2023/03/10 09:49:34;;;;;;;0.40;0.32;;;;;;;18.65;39.28;98572.19;4874723;28;97120;-71
2023/03/10 09:52:14;;;;;;;0.60;0.60;;;;;;;18.65;39.31;98581.16;4874765;28;96853;-71
2023/03/10 09:55:23;;;;;;;0.50;0.40;;;;;;;18.63;39.10;98563.41;4874982;28;96548;-71
2023/03/10 09:57:53;;;;;;;0.50;0.47;;;;;;;18.63;39.21;98572.38;4850966;28;97113;-71
2023/03/10 10:00:23;;;;;;;0.77;0.50;;;;;;;18.64;39.47;98578.66;4872918;28;97376;-72
2023/03/10 10:03:02;;;;;;;0.40;0.30;;;;;;;18.64;39.36;98573.22;4884813;28;96810;-71
2023/03/10 10:05:32;;;;;;;0.40;0.38;;;;;;;18.67;39.49;98575.50;4874469;28;97218;-71
2023/03/10 10:08:04;;;;;;;0.60;0.55;;;;;;;18.66;39.13;98582.84;4892927;28;97295;-71
2023/03/10 10:10:37;;;;;;;0.45;0.43;;;;;;;18.67;38.98;98583.66;4877656;28;97170;-70
2023/03/10 10:13:13;;;;;;;0.82;0.52;;;;;;;18.68;39.08;98580.72;4883325;28;97376;-71
2023/03/10 10:15:43;;;;;;;;;;;;;;;18.69;39.26;98582.41;4875873;28;96905;-71
2023/03/10 10:18:13;;;;;;;0.50;0.40;;;;;;;18.68;39.22;98579.91;4872636;28;98055;-72
2023/03/10 10:20:52;;;;;;;0.50;0.30;;;;;;;18.68;39.16;98588.88;4887383;28;97244;-71
2023/03/10 10:23:58;;;;;;;0.40;0.40;;;;;;;18.71;38.93;98590.34;4878146;28;97410;-71
2023/03/10 10:26:26;;;;;;;0.60;0.40;;;;;;;18.71;39.11;98587.63;4862290;28;96987;-71
2023/03/10 10:29:00;;;;;;;0.60;0.50;;;;;;;18.72;39.12;98584.69;4869738;28;97609;-72
2023/03/10 10:31:29;;;;;;;1.83;0.43;;;;;;;18.72;39.21;98584.69;4880915;28;99603;-71
2023/03/10 10:34:05;;;;;;;0.65;0.50;;;;;;;18.73;38.97;98596.41;4874600;28;97216;-71
2023/03/10 10:36:45;;;;;;;0.40;0.35;;;;;;;18.76;38.81;98597.84;4885472;28;96905;-71
2023/03/10 10:39:31;;;;;;;0.50;0.40;;;;;;;18.73;39.30;98613.53;4873961;28;97743;-72
2023/03/10 10:42:16;;;;;;;;;;;;;;;18.73;39.20;98604.56;4870288;28;97261;-71
2023/03/10 10:44:43;;;;;;;0.50;0.50;;;;;;;18.73;39.29;98594.50;4888409;28;96642;-71
2023/03/10 10:47:48;;;;;;;0.70;0.52;;;;;;;18.72;39.06;98600.16;4874093;28;97359;-71
2023/03/10 10:50:28;;;;;;;0.60;0.40;;;;;;;18.75;39.13;98597.00;4865121;28;97607;-71
2023/03/10 10:53:23;;;;;;;0.50;0.43;;;;;;;18.75;39.25;98594.28;4879952;28;98219;-71
2023/03/10 10:56:13;;;;;;;0.60;0.30;;;;;;;18.72;39.18;98595.56;4875207;28;96853;-71
2023/03/10 10:58:43;;;;;;;0.40;0.38;;;;;;;18.72;39.18;98592.84;4873127;28;96783;-73
2023/03/10 11:01:15;;;;;;;0.40;0.30;;;;;;;18.74;38.99;98592.63;4866110;28;98453;-73
2023/03/10 11:03:46;;;;;;;0.30;0.30;;;;;;;18.73;39.07;98599.94;4878306;28;97231;-72
2023/03/10 11:06:30;;;;;;;1.60;1.08;;;;;;;18.73;39.40;98597.22;4867421;28;96779;-72
2023/03/10 11:09:11;;;;;;;0.40;0.40;;;;;;;18.74;39.07;98592.63;4879518;28;96703;-72
2023/03/10 11:12:05;;;;;;;0.50;0.40;;;;;;;18.77;39.32;98608.50;4879986;28;97708;-72
2023/03/10 11:14:53;;;;;;;0.35;0.30;;;;;;;18.77;39.41;98602.25;4880406;28;96956;-72
2023/03/10 11:17:47;;;;;;;0.82;0.50;;;;;;;18.76;39.21;98593.25;4876513;28;98622;-72
2023/03/10 11:20:23;;;;;;;0.40;0.30;;;;;;;18.76;39.08;98595.13;4875284;28;96823;-72
2023/03/10 11:23:02;;;;;;;0.52;0.40;;;;;;;18.74;39.13;98598.06;4870892;28;96823;-73
2023/03/10 11:25:48;;;;;;;0.50;0.45;;;;;;;18.74;39.33;98587.19;4880147;28;97280;-72
2023/03/10 11:28:34;;;;;;;0.75;0.40;;;;;;;18.75;39.32;98580.69;4888243;28;96934;-73
2023/03/10 11:31:24;;;;;;;0.60;0.40;;;;;;;18.76;39.23;98576.09;4886677;28;97762;-73
2023/03/10 11:34:02;;;;;;;0.43;0.40;;;;;;;18.76;39.29;98574.22;4881877;28;96876;-73
2023/03/10 11:36:34;;;;;;;0.32;0.30;;;;;;;18.75;39.05;98569.81;4877192;28;96968;-73
2023/03/10 11:39:44;;;;;;;0.40;0.30;;;;;;;18.78;39.07;98566.66;4878647;28;96775;-74
2023/03/10 11:42:29;;;;;;;0.50;0.30;;;;;;;18.79;38.95;98568.34;4871342;28;96599;-72
2023/03/10 11:45:22;;;;;;;0.55;0.45;;;;;;;18.79;39.28;98562.06;4877119;28;96995;-73
2023/03/10 11:47:57;;;;;;;1.08;0.35;;;;;;;18.80;39.43;98563.72;4878729;28;97449;-72
2023/03/10 11:50:45;;;;;;;0.50;0.40;;;;;;;18.81;39.32;98554.53;4879819;28;97311;-72